sensor_id;sensor_type;location;lat;lon;timestamp;P1;durP1;ratioP1;P2;durP2;ratioP2
35877;SDS011;21982;49.804;24.072;2023-02-13T00:00:40;23.33;;;13.00;;
35877;SDS011;21982;49.804;24.072;2023-02-13T00:03:05;24.90;;;12.43;;
35877;SDS011;21982;49.804;24.072;2023-02-13T00:05:30;23.77;;;13.63;;
35877;SDS011;21982;49.804;24.072;2023-02-13T00:07:56;25.03;;;13.40;;
35877;SDS011;21982;49.804;24.072;2023-02-13T00:10:21;26.90;;;13.73;;
35877;SDS011;21982;49.804;24.072;2023-02-13T00:12:47;23.57;;;13.00;;
35877;SDS011;21982;49.804;24.072;2023-02-13T00:15:12;28.57;;;13.50;;
35877;SDS011;21982;49.804;24.072;2023-02-13T00:17:37;25.17;;;13.80;;
35877;SDS011;21982;49.804;24.072;2023-02-13T00:20:03;25.23;;;13.27;;
35877;SDS011;21982;49.804;24.072;2023-02-13T00:22:29;25.70;;;13.97;;
35877;SDS011;21982;49.804;24.072;2023-02-13T00:24:55;23.57;;;13.60;;
35877;SDS011;21982;49.804;24.072;2023-02-13T00:27:20;24.33;;;13.10;;
35877;SDS011;21982;49.804;24.072;2023-02-13T00:29:45;25.47;;;12.03;;
35877;SDS011;21982;49.804;24.072;2023-02-13T00:32:11;26.27;;;12.47;;
35877;SDS011;21982;49.804;24.072;2023-02-13T00:34:36;21.93;;;12.07;;
35877;SDS011;21982;49.804;24.072;2023-02-13T00:37:02;30.40;;;15.83;;
35877;SDS011;21982;49.804;24.072;2023-02-13T00:39:27;29.57;;;13.93;;
35877;SDS011;21982;49.804;24.072;2023-02-13T00:41:53;29.13;;;15.67;;
35877;SDS011;21982;49.804;24.072;2023-02-13T00:44:18;22.03;;;12.83;;
35877;SDS011;21982;49.804;24.072;2023-02-13T00:46:43;27.07;;;13.67;;
35877;SDS011;21982;49.804;24.072;2023-02-13T00:49:09;22.03;;;12.97;;
35877;SDS011;21982;49.804;24.072;2023-02-13T00:51:34;26.50;;;14.20;;
35877;SDS011;21982;49.804;24.072;2023-02-13T00:53:59;24.67;;;13.60;;
35877;SDS011;21982;49.804;24.072;2023-02-13T00:56:25;27.80;;;14.33;;
35877;SDS011;21982;49.804;24.072;2023-02-13T00:58:51;23.03;;;14.00;;
35877;SDS011;21982;49.804;24.072;2023-02-13T01:01:17;27.40;;;14.23;;
35877;SDS011;21982;49.804;24.072;2023-02-13T01:03:42;28.93;;;14.97;;
35877;SDS011;21982;49.804;24.072;2023-02-13T01:06:07;27.20;;;14.50;;
35877;SDS011;21982;49.804;24.072;2023-02-13T01:08:33;28.00;;;14.97;;
35877;SDS011;21982;49.804;24.072;2023-02-13T01:10:59;27.73;;;13.87;;
35877;SDS011;21982;49.804;24.072;2023-02-13T01:13:24;24.23;;;13.70;;
35877;SDS011;21982;49.804;24.072;2023-02-13T01:15:50;24.80;;;14.50;;
35877;SDS011;21982;49.804;24.072;2023-02-13T01:18:17;28.07;;;14.60;;
35877;SDS011;21982;49.804;24.072;2023-02-13T01:20:44;30.53;;;14.17;;
35877;SDS011;21982;49.804;24.072;2023-02-13T01:23:10;26.20;;;14.73;;
35877;SDS011;21982;49.804;24.072;2023-02-13T01:25:42;25.57;;;12.97;;
35877;SDS011;21982;49.804;24.072;2023-02-13T01:28:07;28.97;;;15.47;;
35877;SDS011;21982;49.804;24.072;2023-02-13T01:30:33;25.83;;;13.90;;
35877;SDS011;21982;49.804;24.072;2023-02-13T01:32:58;24.03;;;12.93;;
35877;SDS011;21982;49.804;24.072;2023-02-13T01:35:24;32.67;;;14.23;;
35877;SDS011;21982;49.804;24.072;2023-02-13T01:37:49;28.57;;;14.33;;
35877;SDS011;21982;49.804;24.072;2023-02-13T01:40:14;24.73;;;12.53;;
35877;SDS011;21982;49.804;24.072;2023-02-13T01:42:41;23.63;;;12.53;;
35877;SDS011;21982;49.804;24.072;2023-02-13T01:45:21;29.37;;;13.93;;
35877;SDS011;21982;49.804;24.072;2023-02-13T01:50:24;29.00;;;15.10;;
35877;SDS011;21982;49.804;24.072;2023-02-13T01:55:47;29.23;;;13.57;;
35877;SDS011;21982;49.804;24.072;2023-02-13T01:58:17;31.27;;;13.97;;
35877;SDS011;21982;49.804;24.072;2023-02-13T02:00:48;30.10;;;15.70;;
35877;SDS011;21982;49.804;24.072;2023-02-13T02:03:21;33.70;;;15.93;;
35877;SDS011;21982;49.804;24.072;2023-02-13T02:05:54;33.47;;;17.73;;
35877;SDS011;21982;49.804;24.072;2023-02-13T02:08:22;35.47;;;18.90;;
35877;SDS011;21982;49.804;24.072;2023-02-13T02:10:48;35.10;;;16.73;;
35877;SDS011;21982;49.804;24.072;2023-02-13T02:13:18;37.00;;;16.40;;
35877;SDS011;21982;49.804;24.072;2023-02-13T02:15:45;27.33;;;14.27;;
35877;SDS011;21982;49.804;24.072;2023-02-13T02:18:12;32.07;;;15.77;;
35877;SDS011;21982;49.804;24.072;2023-02-13T02:28:30;28.77;;;14.17;;
35877;SDS011;21982;49.804;24.072;2023-02-13T02:45:17;28.77;;;14.87;;
35877;SDS011;21982;49.804;24.072;2023-02-13T02:56:36;25.52;;;13.90;;
35877;SDS011;21982;49.804;24.072;2023-02-13T02:58:45;28.33;;;14.60;;
35877;SDS011;21982;49.804;24.072;2023-02-13T03:01:34;27.73;;;13.87;;
35877;SDS011;21982;49.804;24.072;2023-02-13T03:04:28;28.47;;;15.53;;
35877;SDS011;21982;49.804;24.072;2023-02-13T03:07:18;25.57;;;14.63;;
35877;SDS011;21982;49.804;24.072;2023-02-13T03:09:46;29.67;;;15.67;;
35877;SDS011;21982;49.804;24.072;2023-02-13T03:12:34;30.63;;;14.87;;
35877;SDS011;21982;49.804;24.072;2023-02-13T03:15:40;32.00;;;16.77;;
35877;SDS011;21982;49.804;24.072;2023-02-13T03:18:28;28.23;;;15.80;;
35877;SDS011;21982;49.804;24.072;2023-02-13T03:21:57;28.63;;;15.33;;
35877;SDS011;21982;49.804;24.072;2023-02-13T03:32:59;29.23;;;14.87;;
35877;SDS011;21982;49.804;24.072;2023-02-13T03:35:40;33.37;;;15.77;;
35877;SDS011;21982;49.804;24.072;2023-02-13T03:41:19;36.65;;;15.57;;
35877;SDS011;21982;49.804;24.072;2023-02-13T03:46:34;24.80;;;13.80;;
35877;SDS011;21982;49.804;24.072;2023-02-13T03:49:04;28.67;;;15.80;;
35877;SDS011;21982;49.804;24.072;2023-02-13T03:51:55;24.77;;;13.37;;
35877;SDS011;21982;49.804;24.072;2023-02-13T03:54:42;28.95;;;13.30;;
35877;SDS011;21982;49.804;24.072;2023-02-13T03:57:31;22.77;;;12.73;;
35877;SDS011;21982;49.804;24.072;2023-02-13T04:00:19;29.53;;;14.23;;
35877;SDS011;21982;49.804;24.072;2023-02-13T04:02:54;23.40;;;12.33;;
35877;SDS011;21982;49.804;24.072;2023-02-13T04:05:25;28.10;;;13.60;;
35877;SDS011;21982;49.804;24.072;2023-02-13T04:07:53;23.73;;;13.30;;
35877;SDS011;21982;49.804;24.072;2023-02-13T04:10:19;26.17;;;14.50;;
35877;SDS011;21982;49.804;24.072;2023-02-13T04:15:49;30.20;;;15.50;;
35877;SDS011;21982;49.804;24.072;2023-02-13T04:18:23;29.07;;;15.80;;
35877;SDS011;21982;49.804;24.072;2023-02-13T04:20:52;29.33;;;16.17;;
35877;SDS011;21982;49.804;24.072;2023-02-13T04:23:18;28.83;;;14.33;;
35877;SDS011;21982;49.804;24.072;2023-02-13T04:25:46;27.27;;;13.83;;
35877;SDS011;21982;49.804;24.072;2023-02-13T04:28:14;31.00;;;13.00;;
35877;SDS011;21982;49.804;24.072;2023-02-13T04:30:40;29.43;;;14.00;;
35877;SDS011;21982;49.804;24.072;2023-02-13T04:33:05;28.63;;;14.33;;
35877;SDS011;21982;49.804;24.072;2023-02-13T04:35:31;24.60;;;13.60;;
35877;SDS011;21982;49.804;24.072;2023-02-13T04:37:56;27.73;;;13.97;;
35877;SDS011;21982;49.804;24.072;2023-02-13T04:40:22;29.13;;;14.33;;
35877;SDS011;21982;49.804;24.072;2023-02-13T04:42:47;25.60;;;15.30;;
35877;SDS011;21982;49.804;24.072;2023-02-13T04:45:14;24.23;;;13.50;;
35877;SDS011;21982;49.804;24.072;2023-02-13T04:47:39;23.98;;;13.70;;
35877;SDS011;21982;49.804;24.072;2023-02-13T04:50:05;27.87;;;14.03;;
35877;SDS011;21982;49.804;24.072;2023-02-13T04:52:31;28.63;;;14.70;;
35877;SDS011;21982;49.804;24.072;2023-02-13T04:54:57;31.87;;;15.10;;
35877;SDS011;21982;49.804;24.072;2023-02-13T04:57:22;25.80;;;13.20;;
35877;SDS011;21982;49.804;24.072;2023-02-13T04:59:48;30.53;;;13.00;;
35877;SDS011;21982;49.804;24.072;2023-02-13T05:02:13;30.83;;;13.87;;
35877;SDS011;21982;49.804;24.072;2023-02-13T05:04:39;25.70;;;12.70;;
35877;SDS011;21982;49.804;24.072;2023-02-13T05:07:04;29.30;;;15.13;;
35877;SDS011;21982;49.804;24.072;2023-02-13T05:09:30;26.70;;;14.80;;
35877;SDS011;21982;49.804;24.072;2023-02-13T05:11:55;28.63;;;13.80;;
35877;SDS011;21982;49.804;24.072;2023-02-13T05:14:21;26.48;;;12.85;;
35877;SDS011;21982;49.804;24.072;2023-02-13T05:16:46;25.60;;;13.20;;
35877;SDS011;21982;49.804;24.072;2023-02-13T05:19:14;27.47;;;14.03;;
35877;SDS011;21982;49.804;24.072;2023-02-13T05:21:40;29.60;;;13.50;;
35877;SDS011;21982;49.804;24.072;2023-02-13T05:24:24;29.33;;;13.90;;
35877;SDS011;21982;49.804;24.072;2023-02-13T05:26:49;28.10;;;14.80;;
35877;SDS011;21982;49.804;24.072;2023-02-13T05:29:15;30.50;;;15.77;;
35877;SDS011;21982;49.804;24.072;2023-02-13T05:31:47;34.43;;;14.27;;
35877;SDS011;21982;49.804;24.072;2023-02-13T05:34:14;24.97;;;12.83;;
35877;SDS011;21982;49.804;24.072;2023-02-13T05:36:40;32.70;;;14.40;;
35877;SDS011;21982;49.804;24.072;2023-02-13T05:39:05;31.90;;;14.77;;
35877;SDS011;21982;49.804;24.072;2023-02-13T05:41:31;29.33;;;14.63;;
35877;SDS011;21982;49.804;24.072;2023-02-13T05:43:56;30.97;;;15.37;;
35877;SDS011;21982;49.804;24.072;2023-02-13T05:46:22;28.73;;;14.77;;
35877;SDS011;21982;49.804;24.072;2023-02-13T05:48:47;28.70;;;13.97;;
35877;SDS011;21982;49.804;24.072;2023-02-13T05:51:13;31.50;;;16.17;;
35877;SDS011;21982;49.804;24.072;2023-02-13T05:53:38;29.10;;;14.67;;
35877;SDS011;21982;49.804;24.072;2023-02-13T05:56:04;30.00;;;13.90;;
35877;SDS011;21982;49.804;24.072;2023-02-13T05:58:30;33.67;;;17.10;;
35877;SDS011;21982;49.804;24.072;2023-02-13T06:00:56;32.42;;;14.98;;
35877;SDS011;21982;49.804;24.072;2023-02-13T06:03:23;30.33;;;14.80;;
35877;SDS011;21982;49.804;24.072;2023-02-13T06:05:50;28.90;;;14.23;;
35877;SDS011;21982;49.804;24.072;2023-02-13T06:08:18;36.93;;;16.50;;
35877;SDS011;21982;49.804;24.072;2023-02-13T06:10:44;29.70;;;15.97;;
35877;SDS011;21982;49.804;24.072;2023-02-13T06:13:11;32.97;;;15.18;;
35877;SDS011;21982;49.804;24.072;2023-02-13T06:15:36;25.90;;;14.98;;
35877;SDS011;21982;49.804;24.072;2023-02-13T06:18:01;37.40;;;17.37;;
35877;SDS011;21982;49.804;24.072;2023-02-13T06:20:27;33.60;;;15.30;;
35877;SDS011;21982;49.804;24.072;2023-02-13T06:22:52;33.10;;;18.52;;
35877;SDS011;21982;49.804;24.072;2023-02-13T06:25:18;33.67;;;18.27;;
35877;SDS011;21982;49.804;24.072;2023-02-13T06:27:47;30.25;;;16.58;;
35877;SDS011;21982;49.804;24.072;2023-02-13T06:30:13;35.10;;;15.52;;
35877;SDS011;21982;49.804;24.072;2023-02-13T06:32:39;30.90;;;16.23;;
35877;SDS011;21982;49.804;24.072;2023-02-13T06:35:04;35.88;;;15.95;;
35877;SDS011;21982;49.804;24.072;2023-02-13T06:37:30;34.78;;;16.48;;
35877;SDS011;21982;49.804;24.072;2023-02-13T06:39:56;32.65;;;15.93;;
35877;SDS011;21982;49.804;24.072;2023-02-13T06:42:21;39.15;;;17.25;;
35877;SDS011;21982;49.804;24.072;2023-02-13T06:44:46;33.00;;;17.25;;
35877;SDS011;21982;49.804;24.072;2023-02-13T06:47:12;30.92;;;17.25;;
35877;SDS011;21982;49.804;24.072;2023-02-13T06:49:37;32.50;;;17.98;;
35877;SDS011;21982;49.804;24.072;2023-02-13T06:52:03;35.45;;;16.50;;
35877;SDS011;21982;49.804;24.072;2023-02-13T06:54:29;38.63;;;18.48;;
35877;SDS011;21982;49.804;24.072;2023-02-13T06:56:55;38.92;;;18.60;;
35877;SDS011;21982;49.804;24.072;2023-02-13T06:59:20;37.63;;;19.65;;
35877;SDS011;21982;49.804;24.072;2023-02-13T07:01:46;48.50;;;20.45;;
35877;SDS011;21982;49.804;24.072;2023-02-13T07:04:11;40.50;;;18.63;;
35877;SDS011;21982;49.804;24.072;2023-02-13T07:06:37;40.15;;;20.88;;
35877;SDS011;21982;49.804;24.072;2023-02-13T07:09:02;41.38;;;21.67;;
35877;SDS011;21982;49.804;24.072;2023-02-13T07:11:28;43.92;;;23.65;;
35877;SDS011;21982;49.804;24.072;2023-02-13T07:13:54;43.40;;;23.33;;
35877;SDS011;21982;49.804;24.072;2023-02-13T07:16:19;41.70;;;20.80;;
35877;SDS011;21982;49.804;24.072;2023-02-13T07:18:45;40.45;;;20.05;;
35877;SDS011;21982;49.804;24.072;2023-02-13T07:21:10;38.55;;;21.95;;
35877;SDS011;21982;49.804;24.072;2023-02-13T07:23:36;46.55;;;20.73;;
35877;SDS011;21982;49.804;24.072;2023-02-13T07:26:01;43.25;;;20.13;;
35877;SDS011;21982;49.804;24.072;2023-02-13T07:28:27;34.50;;;17.73;;
35877;SDS011;21982;49.804;24.072;2023-02-13T07:30:53;42.08;;;18.60;;
35877;SDS011;21982;49.804;24.072;2023-02-13T07:33:19;37.83;;;19.77;;
35877;SDS011;21982;49.804;24.072;2023-02-13T07:35:45;38.38;;;19.90;;
35877;SDS011;21982;49.804;24.072;2023-02-13T07:38:15;37.40;;;19.23;;
35877;SDS011;21982;49.804;24.072;2023-02-13T07:40:41;36.55;;;21.33;;
35877;SDS011;21982;49.804;24.072;2023-02-13T07:43:06;39.97;;;21.90;;
35877;SDS011;21982;49.804;24.072;2023-02-13T07:45:32;39.45;;;19.52;;
35877;SDS011;21982;49.804;24.072;2023-02-13T07:47:57;37.15;;;23.10;;
35877;SDS011;21982;49.804;24.072;2023-02-13T07:50:24;39.13;;;21.33;;
35877;SDS011;21982;49.804;24.072;2023-02-13T07:52:53;45.33;;;24.13;;
35877;SDS011;21982;49.804;24.072;2023-02-13T07:55:23;44.53;;;23.20;;
35877;SDS011;21982;49.804;24.072;2023-02-13T07:57:49;44.60;;;21.45;;
35877;SDS011;21982;49.804;24.072;2023-02-13T08:00:15;44.90;;;21.52;;
35877;SDS011;21982;49.804;24.072;2023-02-13T08:02:42;40.92;;;21.65;;
35877;SDS011;21982;49.804;24.072;2023-02-13T08:05:08;43.42;;;20.05;;
35877;SDS011;21982;49.804;24.072;2023-02-13T08:07:33;40.47;;;20.27;;
35877;SDS011;21982;49.804;24.072;2023-02-13T08:09:59;38.35;;;20.85;;
35877;SDS011;21982;49.804;24.072;2023-02-13T08:12:43;37.40;;;20.10;;
35877;SDS011;21982;49.804;24.072;2023-02-13T08:15:10;41.75;;;21.25;;
35877;SDS011;21982;49.804;24.072;2023-02-13T08:17:40;38.03;;;20.83;;
35877;SDS011;21982;49.804;24.072;2023-02-13T08:20:06;34.83;;;19.85;;
35877;SDS011;21982;49.804;24.072;2023-02-13T08:22:36;38.92;;;19.77;;
35877;SDS011;21982;49.804;24.072;2023-02-13T08:25:02;36.83;;;19.08;;
35877;SDS011;21982;49.804;24.072;2023-02-13T08:27:28;39.17;;;19.17;;
35877;SDS011;21982;49.804;24.072;2023-02-13T08:29:54;36.55;;;20.70;;
35877;SDS011;21982;49.804;24.072;2023-02-13T08:32:21;38.75;;;20.27;;
35877;SDS011;21982;49.804;24.072;2023-02-13T08:34:47;48.80;;;23.65;;
35877;SDS011;21982;49.804;24.072;2023-02-13T08:37:13;40.42;;;18.80;;
35877;SDS011;21982;49.804;24.072;2023-02-13T08:39:39;35.15;;;18.55;;
35877;SDS011;21982;49.804;24.072;2023-02-13T08:42:04;35.83;;;19.10;;
35877;SDS011;21982;49.804;24.072;2023-02-13T08:44:30;39.70;;;21.95;;
35877;SDS011;21982;49.804;24.072;2023-02-13T08:46:55;33.50;;;17.98;;
35877;SDS011;21982;49.804;24.072;2023-02-13T08:49:21;30.00;;;15.70;;
35877;SDS011;21982;49.804;24.072;2023-02-13T08:51:48;33.47;;;17.60;;
35877;SDS011;21982;49.804;24.072;2023-02-13T08:54:14;38.15;;;19.23;;
35877;SDS011;21982;49.804;24.072;2023-02-13T08:56:41;38.00;;;21.05;;
35877;SDS011;21982;49.804;24.072;2023-02-13T08:59:07;37.25;;;19.27;;
35877;SDS011;21982;49.804;24.072;2023-02-13T09:01:32;34.35;;;20.23;;
35877;SDS011;21982;49.804;24.072;2023-02-13T09:03:58;41.83;;;20.38;;
35877;SDS011;21982;49.804;24.072;2023-02-13T09:06:24;24.08;;;16.17;;
35877;SDS011;21982;49.804;24.072;2023-02-13T09:08:53;39.60;;;21.42;;
35877;SDS011;21982;49.804;24.072;2023-02-13T09:11:19;27.60;;;14.80;;
35877;SDS011;21982;49.804;24.072;2023-02-13T09:13:47;33.25;;;14.80;;
35877;SDS011;21982;49.804;24.072;2023-02-13T09:16:14;25.60;;;14.15;;
35877;SDS011;21982;49.804;24.072;2023-02-13T09:18:40;31.60;;;17.13;;
35877;SDS011;21982;49.804;24.072;2023-02-13T09:21:06;33.78;;;16.88;;
35877;SDS011;21982;49.804;24.072;2023-02-13T09:23:36;27.20;;;15.27;;
35877;SDS011;21982;49.804;24.072;2023-02-13T09:26:04;30.83;;;13.13;;
35877;SDS011;21982;49.804;24.072;2023-02-13T09:28:32;35.97;;;15.55;;
35877;SDS011;21982;49.804;24.072;2023-02-13T09:31:08;30.65;;;14.63;;
35877;SDS011;21982;49.804;24.072;2023-02-13T09:33:35;39.25;;;17.88;;
35877;SDS011;21982;49.804;24.072;2023-02-13T09:36:04;39.30;;;18.08;;
35877;SDS011;21982;49.804;24.072;2023-02-13T09:38:31;43.05;;;22.20;;
35877;SDS011;21982;49.804;24.072;2023-02-13T09:41:18;48.25;;;23.30;;
35877;SDS011;21982;49.804;24.072;2023-02-13T09:46:28;48.95;;;19.63;;
35877;SDS011;21982;49.804;24.072;2023-02-13T09:48:58;68.35;;;21.95;;
35877;SDS011;21982;49.804;24.072;2023-02-13T09:51:26;54.65;;;23.13;;
35877;SDS011;21982;49.804;24.072;2023-02-13T09:53:57;104.38;;;25.20;;
35877;SDS011;21982;49.804;24.072;2023-02-13T10:02:27;57.53;;;22.90;;
35877;SDS011;21982;49.804;24.072;2023-02-13T10:05:21;81.03;;;22.90;;
35877;SDS011;21982;49.804;24.072;2023-02-13T10:18:52;61.70;;;22.30;;
35877;SDS011;21982;49.804;24.072;2023-02-13T10:21:25;64.93;;;25.38;;
35877;SDS011;21982;49.804;24.072;2023-02-13T10:26:49;84.22;;;27.70;;
35877;SDS011;21982;49.804;24.072;2023-02-13T10:32:09;61.90;;;27.15;;
35877;SDS011;21982;49.804;24.072;2023-02-13T10:34:41;74.95;;;25.55;;
35877;SDS011;21982;49.804;24.072;2023-02-13T10:37:11;53.58;;;21.55;;
35877;SDS011;21982;49.804;24.072;2023-02-13T10:39:39;62.70;;;25.25;;
35877;SDS011;21982;49.804;24.072;2023-02-13T10:42:10;56.38;;;22.88;;
35877;SDS011;21982;49.804;24.072;2023-02-13T11:04:10;46.67;;;22.60;;
35877;SDS011;21982;49.804;24.072;2023-02-13T11:06:40;40.92;;;21.30;;
35877;SDS011;21982;49.804;24.072;2023-02-13T11:09:08;40.55;;;21.65;;
35877;SDS011;21982;49.804;24.072;2023-02-13T11:11:37;40.30;;;21.95;;
35877;SDS011;21982;49.804;24.072;2023-02-13T11:16:53;39.70;;;21.85;;
35877;SDS011;21982;49.804;24.072;2023-02-13T11:21:57;46.60;;;25.60;;
35877;SDS011;21982;49.804;24.072;2023-02-13T11:24:26;40.08;;;23.00;;
35877;SDS011;21982;49.804;24.072;2023-02-13T11:27:04;51.08;;;24.30;;
35877;SDS011;21982;49.804;24.072;2023-02-13T11:29:33;41.88;;;21.38;;
35877;SDS011;21982;49.804;24.072;2023-02-13T11:32:03;37.40;;;19.60;;
35877;SDS011;21982;49.804;24.072;2023-02-13T11:34:36;41.30;;;23.33;;
35877;SDS011;21982;49.804;24.072;2023-02-13T11:39:36;43.45;;;23.13;;
35877;SDS011;21982;49.804;24.072;2023-02-13T11:42:02;51.08;;;26.42;;
35877;SDS011;21982;49.804;24.072;2023-02-13T11:44:28;43.10;;;22.00;;
35877;SDS011;21982;49.804;24.072;2023-02-13T11:46:56;44.47;;;22.13;;
35877;SDS011;21982;49.804;24.072;2023-02-13T11:49:30;47.13;;;23.48;;
35877;SDS011;21982;49.804;24.072;2023-02-13T11:52:00;47.53;;;24.70;;
35877;SDS011;21982;49.804;24.072;2023-02-13T11:54:41;43.60;;;24.05;;
35877;SDS011;21982;49.804;24.072;2023-02-13T11:57:21;48.28;;;24.00;;
35877;SDS011;21982;49.804;24.072;2023-02-13T11:59:54;59.90;;;27.73;;
35877;SDS011;21982;49.804;24.072;2023-02-13T12:02:23;49.15;;;28.05;;
35877;SDS011;21982;49.804;24.072;2023-02-13T12:04:50;52.40;;;27.83;;
35877;SDS011;21982;49.804;24.072;2023-02-13T12:07:26;47.45;;;24.70;;
35877;SDS011;21982;49.804;24.072;2023-02-13T12:12:41;57.72;;;26.63;;
35877;SDS011;21982;49.804;24.072;2023-02-13T12:15:30;46.30;;;25.45;;
35877;SDS011;21982;49.804;24.072;2023-02-13T12:24:01;58.88;;;28.70;;
35877;SDS011;21982;49.804;24.072;2023-02-13T12:37:38;48.47;;;24.75;;
35877;SDS011;21982;49.804;24.072;2023-02-13T12:42:48;47.38;;;25.60;;
35877;SDS011;21982;49.804;24.072;2023-02-13T12:45:27;58.42;;;27.67;;
35877;SDS011;21982;49.804;24.072;2023-02-13T12:50:56;51.58;;;26.83;;
35877;SDS011;21982;49.804;24.072;2023-02-13T13:04:41;45.63;;;23.70;;
35877;SDS011;21982;49.804;24.072;2023-02-13T13:12:41;47.83;;;23.95;;
35877;SDS011;21982;49.804;24.072;2023-02-13T13:17:55;48.17;;;24.73;;
35877;SDS011;21982;49.804;24.072;2023-02-13T13:20:36;45.42;;;24.17;;
35877;SDS011;21982;49.804;24.072;2023-02-13T13:28:20;44.90;;;23.00;;
35877;SDS011;21982;49.804;24.072;2023-02-13T13:30:48;43.35;;;22.08;;
35877;SDS011;21982;49.804;24.072;2023-02-13T13:33:19;38.88;;;22.10;;
35877;SDS011;21982;49.804;24.072;2023-02-13T13:36:00;47.65;;;21.83;;
35877;SDS011;21982;49.804;24.072;2023-02-13T13:47:01;46.47;;;24.40;;
35877;SDS011;21982;49.804;24.072;2023-02-13T13:49:47;51.40;;;24.50;;
35877;SDS011;21982;49.804;24.072;2023-02-13T13:54:57;43.83;;;22.88;;
35877;SDS011;21982;49.804;24.072;2023-02-13T14:02:49;43.45;;;25.08;;
35877;SDS011;21982;49.804;24.072;2023-02-13T14:05:55;48.05;;;23.73;;
35877;SDS011;21982;49.804;24.072;2023-02-13T14:11:02;46.90;;;22.27;;
35877;SDS011;21982;49.804;24.072;2023-02-13T14:13:28;42.30;;;20.77;;
35877;SDS011;21982;49.804;24.072;2023-02-13T14:15:57;41.60;;;22.38;;
35877;SDS011;21982;49.804;24.072;2023-02-13T14:18:23;52.10;;;25.02;;
35877;SDS011;21982;49.804;24.072;2023-02-13T14:20:51;44.83;;;22.42;;
35877;SDS011;21982;49.804;24.072;2023-02-13T14:28:40;44.50;;;20.92;;
35877;SDS011;21982;49.804;24.072;2023-02-13T14:31:23;40.42;;;20.15;;
35877;SDS011;21982;49.804;24.072;2023-02-13T14:36:30;56.63;;;24.02;;
35877;SDS011;21982;49.804;24.072;2023-02-13T14:39:15;43.30;;;21.80;;
35877;SDS011;21982;49.804;24.072;2023-02-13T14:46:48;37.78;;;21.65;;
35877;SDS011;21982;49.804;24.072;2023-02-13T14:49:19;44.80;;;22.95;;
35877;SDS011;21982;49.804;24.072;2023-02-13T14:51:52;43.80;;;23.25;;
35877;SDS011;21982;49.804;24.072;2023-02-13T14:54:37;38.63;;;19.83;;
35877;SDS011;21982;49.804;24.072;2023-02-13T14:57:15;33.08;;;18.23;;
35877;SDS011;21982;49.804;24.072;2023-02-13T14:59:47;36.05;;;20.65;;
35877;SDS011;21982;49.804;24.072;2023-02-13T15:02:18;34.50;;;19.15;;
35877;SDS011;21982;49.804;24.072;2023-02-13T15:04:53;35.70;;;18.55;;
35877;SDS011;21982;49.804;24.072;2023-02-13T15:07:21;32.83;;;19.38;;
35877;SDS011;21982;49.804;24.072;2023-02-13T15:09:51;37.35;;;19.10;;
35877;SDS011;21982;49.804;24.072;2023-02-13T15:12:23;35.83;;;19.25;;
35877;SDS011;21982;49.804;24.072;2023-02-13T15:14:50;33.40;;;17.08;;
35877;SDS011;21982;49.804;24.072;2023-02-13T15:17:20;35.22;;;19.40;;
35877;SDS011;21982;49.804;24.072;2023-02-13T15:19:52;33.35;;;17.90;;
35877;SDS011;21982;49.804;24.072;2023-02-13T15:22:20;41.55;;;20.20;;
35877;SDS011;21982;49.804;24.072;2023-02-13T15:24:59;33.00;;;17.92;;
35877;SDS011;21982;49.804;24.072;2023-02-13T15:27:29;38.25;;;19.45;;
35877;SDS011;21982;49.804;24.072;2023-02-13T15:32:52;29.45;;;16.08;;
35877;SDS011;21982;49.804;24.072;2023-02-13T15:35:26;31.63;;;15.75;;
35877;SDS011;21982;49.804;24.072;2023-02-13T15:37:56;32.22;;;17.35;;
35877;SDS011;21982;49.804;24.072;2023-02-13T15:40:26;30.77;;;16.83;;
35877;SDS011;21982;49.804;24.072;2023-02-13T15:42:53;30.85;;;14.85;;
35877;SDS011;21982;49.804;24.072;2023-02-13T15:45:20;32.63;;;17.35;;
35877;SDS011;21982;49.804;24.072;2023-02-13T15:47:48;29.45;;;17.88;;
35877;SDS011;21982;49.804;24.072;2023-02-13T15:50:15;32.53;;;17.40;;
35877;SDS011;21982;49.804;24.072;2023-02-13T15:52:43;31.90;;;17.15;;
35877;SDS011;21982;49.804;24.072;2023-02-13T15:55:18;34.10;;;18.15;;
35877;SDS011;21982;49.804;24.072;2023-02-13T15:57:49;29.10;;;16.52;;
35877;SDS011;21982;49.804;24.072;2023-02-13T16:00:23;36.85;;;19.10;;
35877;SDS011;21982;49.804;24.072;2023-02-13T16:02:49;33.80;;;19.55;;
35877;SDS011;21982;49.804;24.072;2023-02-13T16:05:16;34.25;;;18.13;;
35877;SDS011;21982;49.804;24.072;2023-02-13T16:10:29;38.50;;;19.23;;
35877;SDS011;21982;49.804;24.072;2023-02-13T16:12:56;33.50;;;18.73;;
35877;SDS011;21982;49.804;24.072;2023-02-13T16:15:25;35.00;;;19.52;;
35877;SDS011;21982;49.804;24.072;2023-02-13T16:17:54;33.30;;;17.40;;
35877;SDS011;21982;49.804;24.072;2023-02-13T16:20:21;33.60;;;17.73;;
35877;SDS011;21982;49.804;24.072;2023-02-13T16:22:53;36.45;;;19.98;;
35877;SDS011;21982;49.804;24.072;2023-02-13T16:33:16;36.15;;;18.27;;
35877;SDS011;21982;49.804;24.072;2023-02-13T16:38:23;30.35;;;17.08;;
35877;SDS011;21982;49.804;24.072;2023-02-13T16:40:48;33.38;;;16.85;;
35877;SDS011;21982;49.804;24.072;2023-02-13T16:48:36;37.45;;;19.92;;
35877;SDS011;21982;49.804;24.072;2023-02-13T16:51:02;31.05;;;16.48;;
35877;SDS011;21982;49.804;24.072;2023-02-13T16:53:27;31.92;;;17.70;;
35877;SDS011;21982;49.804;24.072;2023-02-13T16:56:03;30.55;;;15.93;;
35877;SDS011;21982;49.804;24.072;2023-02-13T16:58:31;33.10;;;17.20;;
35877;SDS011;21982;49.804;24.072;2023-02-13T17:00:57;34.03;;;18.38;;
35877;SDS011;21982;49.804;24.072;2023-02-13T17:03:25;33.45;;;19.85;;
35877;SDS011;21982;49.804;24.072;2023-02-13T17:05:51;36.13;;;18.52;;
35877;SDS011;21982;49.804;24.072;2023-02-13T17:08:17;31.77;;;17.75;;
35877;SDS011;21982;49.804;24.072;2023-02-13T17:10:42;32.70;;;17.10;;
35877;SDS011;21982;49.804;24.072;2023-02-13T17:13:26;32.47;;;16.70;;
35877;SDS011;21982;49.804;24.072;2023-02-13T17:15:52;24.50;;;15.35;;
35877;SDS011;21982;49.804;24.072;2023-02-13T17:18:19;29.17;;;15.05;;
35877;SDS011;21982;49.804;24.072;2023-02-13T17:20:45;26.05;;;15.55;;
35877;SDS011;21982;49.804;24.072;2023-02-13T17:23:19;29.33;;;16.23;;
35877;SDS011;21982;49.804;24.072;2023-02-13T17:25:47;25.38;;;14.85;;
35877;SDS011;21982;49.804;24.072;2023-02-13T17:28:15;26.30;;;16.08;;
35877;SDS011;21982;49.804;24.072;2023-02-13T17:30:43;25.23;;;14.52;;
35877;SDS011;21982;49.804;24.072;2023-02-13T17:33:11;26.80;;;14.75;;
35877;SDS011;21982;49.804;24.072;2023-02-13T17:35:38;26.20;;;14.50;;
35877;SDS011;21982;49.804;24.072;2023-02-13T17:38:04;23.65;;;15.10;;
35877;SDS011;21982;49.804;24.072;2023-02-13T17:40:31;34.20;;;14.40;;
35877;SDS011;21982;49.804;24.072;2023-02-13T17:42:57;27.33;;;16.08;;
35877;SDS011;21982;49.804;24.072;2023-02-13T17:45:24;28.60;;;15.40;;
35877;SDS011;21982;49.804;24.072;2023-02-13T17:47:51;32.53;;;16.80;;
35877;SDS011;21982;49.804;24.072;2023-02-13T17:50:17;36.65;;;18.15;;